Detalii statie FLORA ARNO ARAD [00001998]

Toti senzorii

Date Temperatura solului [C]Precipitatii [mm]Voltaj baterie [mV]Leaf Wetness [Min]HC Air temperature [C]HC Relative humidity [%]Punctul de roua [C]
medieminmaxsumaultimatimpmedieminmaxmediemediemin
2019-10-19 23:00:00 15.7 15.6 15.9 0 6972 14.25 14.1 14.72 97.63 13.7 13.5
2019-10-20 00:00:00 15.6 15.4 15.8 0 6982 13.9 13.25 14.26 99.93 13.8 13.2
2019-10-20 01:00:00 15.4 15.3 15.6 0 6962 12.22 11.94 12.45 100 12.1 11.9
2019-10-20 02:00:00 15.3 15.1 15.5 0 6962 11.78 11.57 12.1 100 11.7 11.5
2019-10-20 03:00:00 15.2 15 15.4 0 6972 11.23 10.87 11.58 100 11.1 10.8
2019-10-20 04:00:00 15.1 15 15.3 0 6972 11.42 10.9 12.41 100 11.3 10.9
2019-10-20 05:00:00 15 14.8 15.1 0 6972 11.85 11.42 12.47 100 11.8 11.4
2019-10-20 06:00:00 14.8 14.8 15 0 6952 11.81 11.53 11.93 100 11.7 11.5
2019-10-20 07:00:00 14.7 14.6 14.8 0 6962 11.69 11.47 12.05 100 11.6 11.4
2019-10-20 08:00:00 14.6 14.6 14.8 0 6992 13.04 12.14 14.08 100 12.9 12.1
2019-10-20 09:00:00 14.6 14.5 14.7 0 7246 16.36 14.46 18.33 95.57 15.5 14.4
2019-10-20 10:00:00 14.6 14.6 14.8 0 7382 19.79 18.49 21.1 81.02 16.2 15.6
2019-10-20 11:00:00 14.7 14.6 15 0 7372 22 21.07 23.14 71.01 16.3 15.7
2019-10-20 12:00:00 14.9 14.7 15 0 7372 23.55 23.21 23.91 61.98 15.6 15.3
2019-10-20 13:00:00 15.1 14.9 15.4 0 7372 23.96 23.52 24.46 62.7 16.2 15.7
2019-10-20 14:00:00 15.5 15.3 15.8 0 7372 24.94 24.16 25.61 61.49 16.8 16.4
2019-10-20 15:00:00 15.8 15.6 16 0 7372 25.61 25.33 25.95 58.46 16.6 15.6
2019-10-20 16:00:00 16.1 16 16.3 0 7176 25.63 25.32 25.82 50.44 14.3 13.3
2019-10-20 17:00:00 16.2 16.2 16.3 0 7138 24.74 24.1 25.18 50.23 13.5 13
2019-10-20 18:00:00 16.2 16.2 16.3 0 7010 22.1 20.25 23.79 60.53 13.9 13.4
2019-10-20 19:00:00 16.1 16 16.2 0 6992 19.83 19.11 20.76 64.18 12.6 12.1
2019-10-20 20:00:00 16 15.8 16.2 0 6992 18.29 16.32 19.84 66.58 11.7 10.7
2019-10-20 21:00:00 15.8 15.8 16 0 6972 16.17 14.52 17.06 71 10.7 9.8
2019-10-20 22:00:00 15.7 15.7 15.9 0 6982 14.56 14.26 14.87 75.08 10 9.8
2019-10-20 23:00:00 15.6 15.5 15.7 0 6982 14.18 13.85 14.94 78.96 10.4 9.9
2019-10-21 00:00:00 15.4 15.4 15.6 0 6982 13.65 12.96 14.66 82.02 10.5 10.2
2019-10-21 01:00:00 15.3 15.2 15.5 0 6972 12.94 12.79 13.17 87.68 10.8 10.6
2019-10-21 02:00:00 15.2 15.1 15.4 0 6962 12.65 12.07 13.2 92.02 11.2 11
2019-10-21 03:00:00 15.1 15.1 15.3 0 6952 12.4 12.14 12.57 95.56 11.5 11.2
2019-10-21 04:00:00 14.9 14.8 15.1 0 6952 11.98 11.61 12.29 98.84 11.6 11.3
2019-10-21 05:00:00 14.8 14.8 15 0 6962 11.29 11.03 11.51 100 11.2 11
2019-10-21 06:00:00 14.7 14.5 14.8 0 6952 11.28 10.68 11.82 99.98 11.2 10.6
2019-10-21 07:00:00 14.6 14.6 14.7 0 6962 12 11.8 12.34 99.99 11.9 11.8
2019-10-21 08:00:00 14.5 14.3 14.7 0 6982 12.69 12.26 13.72 99.01 12.4 12.1
2019-10-21 09:00:00 14.4 14.4 14.6 0 7372 16.43 14.29 18.38 87.25 14.1 13.2
2019-10-21 10:00:00 14.4 14.3 14.5 0 7382 20.61 18.92 22.02 72.05 15.2 14.8
2019-10-21 11:00:00 14.5 14.3 14.7 0 7372 23.18 22.4 24.25 62.97 15.5 14.6
2019-10-21 12:00:00 14.7 14.6 14.9 0 7372 24.76 24.42 25.15 60.18 16.3 16
2019-10-21 13:00:00 15 14.8 15.3 0 7372 25.27 24.82 25.53 58.4 16.3 15.7
2019-10-21 14:00:00 15.4 15.3 15.8 0 7362 25.92 25.43 26.18 54.24 15.8 15.1
2019-10-21 15:00:00 15.8 15.6 16.1 0 7362 26.45 26.07 26.7 53.62 16 15.7
2019-10-21 16:00:00 16.2 16.1 16.3 0 7352 26.16 25.85 26.42 51.71 15.3 14.6
2019-10-21 17:00:00 16.3 16.3 16.5 0 7264 24.91 23.63 25.84 52.93 14.4 14.3